Time;durP1;ratioP1;P1;durP2;ratioP2;P2;SDS_P1;SDS_P2;PMS_P1;PMS_P2;Temp;Humidity;BMP_temperature;BMP_pressure;BME280_temperature;BME280_humidity;BME280_pressure;Samples;Min_cycle;Max_cycle;Signal;HPM_P1;HPM_P2
2021/09/26 00:00:38;;;;;;;10.40;9.50;;;17.50;99.90;;;;;;5032788;28;20217;-81
2021/09/26 00:03:04;;;;;;;11.23;10.23;;;17.40;99.90;;;;;;5018813;28;20639;-81
2021/09/26 00:05:30;;;;;;;9.63;8.83;;;17.50;99.90;;;;;;5019174;28;20176;-81
2021/09/26 00:07:55;;;;;;;9.90;8.87;;;17.40;99.90;;;;;;5018202;28;20635;-81
2021/09/26 00:10:21;;;;;;;10.17;9.27;;;17.40;99.90;;;;;;5018824;28;20207;-81
2021/09/26 00:12:47;;;;;;;10.30;9.40;;;17.40;99.90;;;;;;5018327;28;20186;-81
2021/09/26 00:15:17;;;;;;;10.50;9.70;;;17.50;99.90;;;;;;5019235;28;20171;-81
2021/09/26 00:17:43;;;;;;;11.13;9.93;;;17.50;99.90;;;;;;5019304;28;20178;-81
2021/09/26 00:20:09;;;;;;;10.03;9.03;;;17.50;99.90;;;;;;5018820;28;20197;-81
2021/09/26 00:22:35;;;;;;;10.47;9.47;;;17.50;99.90;;;;;;5020014;28;20648;-81
2021/09/26 00:25:02;;;;;;;9.87;8.97;;;17.50;99.90;;;;;;5021656;28;20171;-81
2021/09/26 00:27:27;;;;;;;11.07;10.00;;;17.50;99.90;;;;;;5018844;28;20171;-81
2021/09/26 00:29:53;;;;;;;9.87;8.80;;;17.50;99.90;;;;;;5018729;28;20168;-81
2021/09/26 00:32:19;;;;;;;11.10;9.93;;;17.50;99.90;;;;;;5019044;28;20732;-81
2021/09/26 00:34:45;;;;;;;10.23;9.43;;;17.50;99.90;;;;;;5019129;28;20549;-81
2021/09/26 00:37:10;;;;;;;10.27;9.40;;;17.50;99.90;;;;;;5019059;28;20258;-80
2021/09/26 00:39:36;;;;;;;11.23;10.10;;;17.50;99.90;;;;;;5019237;28;20247;-81
2021/09/26 00:42:02;;;;;;;11.17;10.23;;;17.50;99.90;;;;;;5019101;28;20199;-81
2021/09/26 00:44:27;;;;;;;12.30;11.07;;;17.50;99.90;;;;;;5018845;28;20171;-81
2021/09/26 00:46:53;;;;;;;10.97;9.97;;;17.50;99.90;;;;;;5031030;28;20640;-81
2021/09/26 00:49:20;;;;;;;13.17;11.93;;;17.50;99.90;;;;;;5021993;28;20720;-81
2021/09/26 00:51:46;;;;;;;11.33;10.33;;;17.60;99.90;;;;;;5018770;28;20223;-81
2021/09/26 00:54:12;;;;;;;10.87;9.90;;;17.60;99.90;;;;;;5018839;28;20187;-81
2021/09/26 00:56:38;;;;;;;10.07;9.17;;;17.60;99.90;;;;;;5018924;28;20179;-81
2021/09/26 00:59:04;;;;;;;10.63;9.73;;;17.50;99.90;;;;;;5018907;28;20271;-81
2021/09/26 01:01:30;;;;;;;10.33;9.53;;;17.50;99.90;;;;;;5017164;28;20201;-81
2021/09/26 01:03:57;;;;;;;10.40;9.40;;;17.50;99.90;;;;;;5017674;28;20194;-81
2021/09/26 01:06:34;;;;;;;12.17;10.87;;;17.40;99.90;;;;;;5032137;28;20233;-80
2021/09/26 01:09:06;;;;;;;11.13;10.03;;;17.40;99.90;;;;;;5016998;28;20558;-81
2021/09/26 01:11:38;;;;;;;12.13;10.93;;;17.40;99.90;;;;;;5016591;28;20285;-81
2021/09/26 01:14:34;;;;;;;14.37;10.83;;;17.40;99.90;;;;;;5018139;28;20182;-81
2021/09/26 01:17:07;;;;;;;13.17;10.53;;;17.40;99.90;;;;;;5017889;28;20198;-81
2021/09/26 01:19:55;;;;;;;12.10;11.00;;;17.50;99.90;;;;;;5018351;28;20209;-81
2021/09/26 01:22:37;;;;;;;12.97;11.63;;;17.40;99.90;;;;;;5018452;28;20175;-81
2021/09/26 01:25:06;;;;;;;12.47;11.17;;;17.40;99.90;;;;;;5028651;28;20680;-81
2021/09/26 01:28:08;;;;;;;13.00;11.83;;;17.50;99.90;;;;;;5017850;28;20167;-81
2021/09/26 01:30:56;;;;;;;13.17;11.87;;;17.50;99.90;;;;;;5012355;28;20210;-81
2021/09/26 01:34:06;;;;;;;12.93;11.83;;;17.50;99.90;;;;;;5016714;28;20190;-81
2021/09/26 01:36:55;;;;;;;9.80;9.07;;;17.50;99.90;;;;;;4993153;28;20649;-81
2021/09/26 01:39:27;;;;;;;11.27;9.73;;;17.40;99.90;;;;;;5010015;28;20230;-81
2021/09/26 01:42:08;;;;;;;9.97;9.07;;;17.40;99.90;;;;;;5014235;28;20202;-80
2021/09/26 01:44:33;;;;;;;10.50;9.50;;;17.30;99.90;;;;;;5013918;28;20635;-81
2021/09/26 01:47:01;;;;;;;10.83;9.17;;;17.30;99.90;;;;;;5007708;28;20179;-81
2021/09/26 01:49:35;;;;;;;10.30;9.50;;;17.30;99.90;;;;;;5021089;28;20183;-81
2021/09/26 01:52:01;;;;;;;9.93;9.13;;;17.20;99.90;;;;;;5018411;28;20364;-81
2021/09/26 01:54:28;;;;;;;9.87;8.90;;;17.20;99.90;;;;;;5022544;28;20196;-81
2021/09/26 01:56:56;;;;;;;10.67;9.67;;;17.20;99.90;;;;;;5020658;28;20175;-81
2021/09/26 01:59:23;;;;;;;11.20;10.10;;;17.20;99.90;;;;;;5022117;28;20253;-81
2021/09/26 02:01:49;;;;;;;11.93;10.80;;;17.20;99.90;;;;;;5022146;28;20274;-81
2021/09/26 02:04:19;;;;;;;10.90;9.97;;;17.30;99.90;;;;;;5022144;28;20209;-83
2021/09/26 02:06:45;;;;;;;10.30;9.30;;;17.20;99.90;;;;;;5021229;28;20205;-81
2021/09/26 02:09:13;;;;;;;10.40;9.20;;;17.20;99.90;;;;;;5022033;28;20548;-81
2021/09/26 02:11:40;;;;;;;10.17;9.27;;;17.20;99.90;;;;;;5022000;28;20623;-81
2021/09/26 02:14:08;;;;;;;10.20;9.27;;;17.20;99.90;;;;;;5021809;28;20193;-81
2021/09/26 02:16:35;;;;;;;11.87;10.87;;;17.10;99.90;;;;;;5021766;28;20182;-81
2021/09/26 02:19:03;;;;;;;11.73;10.70;;;17.20;99.90;;;;;;5021809;28;20210;-81
2021/09/26 02:21:31;;;;;;;13.63;12.23;;;17.20;99.90;;;;;;5022182;28;20297;-81
2021/09/26 02:23:58;;;;;;;12.67;11.37;;;17.20;99.90;;;;;;5021311;28;20274;-81
2021/09/26 02:26:25;;;;;;;13.67;12.47;;;17.20;99.90;;;;;;5020191;28;20183;-81
2021/09/26 02:28:51;;;;;;;14.27;12.87;;;17.20;99.90;;;;;;5021060;28;20301;-81
2021/09/26 02:31:18;;;;;;;12.40;11.27;;;17.20;99.90;;;;;;5020029;28;20222;-81
2021/09/26 02:33:47;;;;;;;12.93;11.73;;;17.10;99.90;;;;;;5023660;28;20179;-81
2021/09/26 02:36:13;;;;;;;12.60;11.40;;;17.10;99.90;;;;;;5008114;28;20178;-81
2021/09/26 02:38:40;;;;;;;12.53;11.43;;;17.00;99.90;;;;;;5019985;28;20182;-81
2021/09/26 02:41:30;;;;;;;11.30;10.30;;;16.90;99.90;;;;;;5019783;28;20203;-80
2021/09/26 02:44:30;;;;;;;11.47;10.43;;;16.90;99.90;;;;;;5022111;28;20216;-81
2021/09/26 02:47:03;;;;;;;11.33;10.27;;;16.90;99.90;;;;;;4980813;28;20533;-81
2021/09/26 02:49:29;;;;;;;11.27;10.17;;;16.90;99.90;;;;;;5020765;28;20563;-81
2021/09/26 02:51:56;;;;;;;11.60;10.47;;;16.80;99.90;;;;;;5020824;28;20305;-81
2021/09/26 02:54:22;;;;;;;12.60;11.00;;;16.90;99.90;;;;;;5018824;28;20219;-81
2021/09/26 02:56:50;;;;;;;15.03;13.57;;;16.80;99.90;;;;;;5019404;28;20181;-81
2021/09/26 02:59:16;;;;;;;11.73;10.83;;;16.80;99.90;;;;;;5019107;28;20683;-81
2021/09/26 03:01:52;;;;;;;12.73;11.53;;;16.80;99.90;;;;;;5020373;28;20195;-81
2021/09/26 03:04:18;;;;;;;14.27;12.87;;;16.70;99.90;;;;;;5019554;28;20186;-81
2021/09/26 03:06:44;;;;;;;16.83;14.53;;;16.70;99.90;;;;;;5020166;28;20186;-81
2021/09/26 03:09:10;;;;;;;14.17;12.70;;;16.80;99.90;;;;;;5021038;28;20550;-81
2021/09/26 03:11:36;;;;;;;14.67;13.17;;;16.70;99.90;;;;;;5020474;28;20228;-81
2021/09/26 03:14:01;;;;;;;13.60;12.30;;;16.70;99.90;;;;;;5023338;28;20236;-81
2021/09/26 03:16:27;;;;;;;12.90;11.70;;;16.70;99.90;;;;;;5020736;28;20272;-81
2021/09/26 03:18:53;;;;;;;13.77;12.60;;;16.70;99.90;;;;;;5020271;28;20209;-81
2021/09/26 03:21:18;;;;;;;15.57;14.13;;;16.70;99.90;;;;;;5020492;28;20199;-81
2021/09/26 03:23:44;;;;;;;15.33;13.73;;;16.60;99.90;;;;;;5018953;28;20707;-81
2021/09/26 03:26:10;;;;;;;15.63;14.10;;;16.60;99.90;;;;;;5020619;28;20265;-81
2021/09/26 03:28:35;;;;;;;15.07;13.77;;;16.60;99.90;;;;;;5019993;28;20262;-80
2021/09/26 03:31:02;;;;;;;14.43;13.13;;;16.60;99.90;;;;;;5019929;28;20205;-81
2021/09/26 03:33:27;;;;;;;14.13;12.87;;;16.60;99.90;;;;;;5020414;28;20183;-81
2021/09/26 03:35:53;;;;;;;12.90;11.87;;;16.60;99.90;;;;;;5020066;28;20193;-81
2021/09/26 03:38:18;;;;;;;14.73;13.27;;;16.50;99.90;;;;;;5017279;28;20666;-81
2021/09/26 03:40:44;;;;;;;13.37;12.03;;;16.40;99.90;;;;;;5011011;28;20230;-81
2021/09/26 03:43:10;;;;;;;12.67;11.40;;;16.40;99.90;;;;;;5019725;28;20186;-81
2021/09/26 03:45:36;;;;;;;12.73;11.73;;;16.40;99.90;;;;;;5018526;28;20193;-81
2021/09/26 03:48:02;;;;;;;11.73;10.73;;;16.40;99.90;;;;;;5018036;28;20632;-81
2021/09/26 03:50:28;;;;;;;12.47;11.40;;;16.40;99.90;;;;;;5015978;28;20229;-80
2021/09/26 03:52:53;;;;;;;11.30;10.37;;;16.30;99.90;;;;;;5009054;28;20190;-80
2021/09/26 03:55:19;;;;;;;12.47;11.47;;;16.30;99.90;;;;;;5018734;28;20189;-81
2021/09/26 03:57:45;;;;;;;11.70;10.70;;;16.30;99.90;;;;;;5014320;28;20618;-80
2021/09/26 04:00:14;;;;;;;10.80;9.97;;;16.30;99.90;;;;;;5016335;28;20225;-80
2021/09/26 04:02:41;;;;;;;10.63;9.83;;;16.20;99.90;;;;;;5002836;28;20177;-81
2021/09/26 04:05:08;;;;;;;12.50;11.40;;;16.20;99.90;;;;;;4999404;28;20547;-80
2021/09/26 04:07:34;;;;;;;12.53;11.43;;;16.20;99.90;;;;;;4999357;28;20538;-81
2021/09/26 04:10:00;;;;;;;12.80;11.60;;;16.20;99.90;;;;;;5002771;28;20191;-80
2021/09/26 04:12:26;;;;;;;11.87;10.97;;;16.20;99.90;;;;;;5001671;28;20673;-80
2021/09/26 04:14:51;;;;;;;12.17;11.13;;;16.20;99.90;;;;;;5015544;28;20187;-80
2021/09/26 04:17:17;;;;;;;12.13;11.13;;;16.20;99.90;;;;;;5001277;28;20178;-81
2021/09/26 04:19:42;;;;;;;13.17;11.80;;;16.10;99.90;;;;;;5008101;28;20706;-81
2021/09/26 04:22:08;;;;;;;12.83;11.60;;;16.10;99.90;;;;;;5004039;28;20197;-81
2021/09/26 04:24:34;;;;;;;12.60;11.50;;;16.00;99.90;;;;;;5017537;28;20178;-80
2021/09/26 04:26:59;;;;;;;11.50;10.60;;;15.90;99.90;;;;;;5001382;28;20172;-80
2021/09/26 04:29:25;;;;;;;11.87;10.87;;;16.00;99.90;;;;;;5013719;28;20189;-80
2021/09/26 04:31:52;;;;;;;13.23;12.10;;;;;;;;;;5000985;28;20212;-80
2021/09/26 04:34:19;;;;;;;13.87;12.57;;;;;;;;;;5012043;28;20242;-80
2021/09/26 04:36:46;;;;;;;13.90;12.47;;;16.10;99.90;;;;;;5002979;28;20759;-80
2021/09/26 04:39:11;;;;;;;12.50;11.50;;;16.10;99.90;;;;;;5005727;28;20290;-80
2021/09/26 04:41:37;;;;;;;12.70;11.50;;;16.10;99.90;;;;;;5011320;28;20221;-80
2021/09/26 04:44:03;;;;;;;35.97;12.30;;;16.00;99.90;;;;;;5018441;28;20207;-81
2021/09/26 04:46:28;;;;;;;33.80;12.93;;;16.00;99.90;;;;;;5013364;28;20177;-80
2021/09/26 04:48:54;;;;;;;36.27;12.47;;;16.00;99.90;;;;;;5000148;28;20244;-80
2021/09/26 04:51:20;;;;;;;21.00;12.80;;;16.00;99.90;;;;;;5002566;28;20274;-80
2021/09/26 04:53:46;;;;;;;44.00;12.77;;;16.00;99.90;;;;;;4999776;28;20212;-80
2021/09/26 04:56:11;;;;;;;80.53;13.57;;;16.00;99.90;;;;;;5002417;28;20274;-80
2021/09/26 04:58:37;;;;;;;33.03;12.97;;;16.00;99.90;;;;;;5016403;28;20195;-79
2021/09/26 05:01:02;;;;;;;25.77;14.07;;;15.90;99.90;;;;;;5019277;28;20206;-80
2021/09/26 05:03:28;;;;;;;25.07;13.20;;;15.90;99.90;;;;;;5006010;28;20173;-80
2021/09/26 05:05:54;;;;;;;15.30;14.00;;;15.80;99.90;;;;;;5014748;28;20185;-79
2021/09/26 05:08:20;;;;;;;30.83;15.90;;;15.90;99.90;;;;;;5000061;28;20185;-80
2021/09/26 05:10:45;;;;;;;56.30;18.83;;;15.80;99.90;;;;;;4999476;28;20283;-80
2021/09/26 05:13:11;;;;;;;21.17;17.23;;;15.90;99.90;;;;;;4999797;28;20211;-80
2021/09/26 05:15:37;;;;;;;34.40;18.23;;;15.80;99.90;;;;;;5006904;28;20197;-80
2021/09/26 05:18:02;;;;;;;21.27;17.33;;;15.80;99.90;;;;;;5013586;28;20189;-79
2021/09/26 05:20:28;;;;;;;24.00;19.10;;;15.80;99.90;;;;;;5003326;28;20207;-79
2021/09/26 05:22:54;;;;;;;20.07;18.00;;;15.90;99.90;;;;;;5015545;28;20194;-80
2021/09/26 05:25:20;;;;;;;28.97;19.47;;;15.80;99.90;;;;;;5030618;28;20181;-80
2021/09/26 05:27:45;;;;;;;23.63;18.87;;;15.90;99.90;;;;;;5016908;28;20171;-82
2021/09/26 05:30:12;;;;;;;20.80;18.60;;;15.90;99.90;;;;;;5016879;28;20184;-82
2021/09/26 05:32:38;;;;;;;20.40;18.23;;;15.90;99.90;;;;;;5003249;28;20202;-82
2021/09/26 05:35:05;;;;;;;25.93;20.40;;;15.90;99.90;;;;;;5008443;28;20183;-81
2021/09/26 05:37:30;;;;;;;21.93;18.50;;;15.90;99.90;;;;;;5031185;28;20181;-82
2021/09/26 05:39:56;;;;;;;23.27;19.57;;;15.90;99.90;;;;;;5016780;28;20309;-83
2021/09/26 05:42:22;;;;;;;26.03;20.13;;;16.00;99.90;;;;;;5030423;28;20176;-82
2021/09/26 05:44:47;;;;;;;25.60;20.23;;;16.00;99.90;;;;;;5017384;28;20210;-82
2021/09/26 05:47:14;;;;;;;25.63;20.43;;;16.00;99.90;;;;;;5016877;28;20170;-81
2021/09/26 05:49:40;;;;;;;23.33;18.60;;;16.00;99.90;;;;;;5015743;28;20171;-80
2021/09/26 05:52:08;;;;;;;23.97;18.63;;;16.20;99.90;;;;;;5047146;22;20225;-78
2021/09/26 05:54:35;;;;;;;21.77;18.50;;;15.90;99.90;;;;;;5069522;28;20167;-77
2021/09/26 05:57:01;;;;;;;23.27;18.47;;;16.00;99.90;;;;;;5072064;28;20651;-78
2021/09/26 05:59:27;;;;;;;25.43;19.67;;;15.90;99.90;;;;;;5064504;28;20199;-78
2021/09/26 06:01:52;;;;;;;22.43;18.03;;;16.00;99.90;;;;;;5057412;28;20194;-77
2021/09/26 06:04:18;;;;;;;21.63;18.00;;;16.00;99.90;;;;;;5052283;28;20175;-78
2021/09/26 06:06:44;;;;;;;24.17;19.73;;;16.00;99.90;;;;;;5042745;28;20181;-77
2021/09/26 06:09:09;;;;;;;25.30;18.63;;;16.00;99.90;;;;;;5053334;28;20178;-78
2021/09/26 06:11:35;;;;;;;21.83;16.77;;;16.00;99.90;;;;;;5053353;28;20190;-77
2021/09/26 06:14:01;;;;;;;19.63;15.80;;;16.00;99.90;;;;;;5053451;28;20270;-76
2021/09/26 06:16:26;;;;;;;17.80;15.97;;;15.90;99.90;;;;;;5053037;28;20179;-76
2021/09/26 06:18:52;;;;;;;17.67;15.77;;;16.00;99.90;;;;;;5052831;28;20182;-76
2021/09/26 06:21:18;;;;;;;15.93;14.23;;;16.00;99.90;;;;;;5051386;28;20633;-75
2021/09/26 06:23:43;;;;;;;16.60;14.90;;;15.90;99.90;;;;;;5052887;28;20196;-75
2021/09/26 06:26:09;;;;;;;16.53;14.83;;;15.80;99.90;;;;;;5052921;28;20218;-75
2021/09/26 06:28:35;;;;;;;15.77;14.20;;;15.90;99.90;;;;;;5052701;28;20225;-75
2021/09/26 06:31:00;;;;;;;17.77;14.73;;;15.90;99.90;;;;;;5051324;28;20176;-76
2021/09/26 06:33:26;;;;;;;18.73;15.70;;;16.10;99.90;;;;;;5052616;28;20196;-76
2021/09/26 06:35:53;;;;;;;16.07;14.43;;;16.00;99.90;;;;;;5052480;28;20171;-75
2021/09/26 06:38:19;;;;;;;15.73;14.17;;;16.00;99.90;;;;;;5060159;28;20224;-75
2021/09/26 06:40:44;;;;;;;15.60;14.10;;;16.00;99.90;;;;;;5058972;28;20204;-76
2021/09/26 06:43:12;;;;;;;15.73;14.23;;;16.10;99.90;;;;;;5056175;28;20662;-75
2021/09/26 06:45:38;;;;;;;16.57;14.83;;;16.00;99.90;;;;;;5054748;28;20168;-76
2021/09/26 06:48:04;;;;;;;16.57;14.33;;;16.00;99.90;;;;;;5056741;28;20209;-75
2021/09/26 06:50:29;;;;;;;16.77;14.73;;;15.90;99.90;;;;;;5047955;28;20265;-76
2021/09/26 06:52:55;;;;;;;14.63;13.13;;;16.00;99.90;;;;;;5054772;28;20221;-82
2021/09/26 06:55:21;;;;;;;17.53;14.97;;;16.10;99.90;;;;;;5055858;28;20260;-83
2021/09/26 06:57:46;;;;;;;17.13;15.33;;;16.10;99.90;;;;;;5055226;28;20208;-82
2021/09/26 07:00:12;;;;;;;16.63;15.03;;;16.20;99.90;;;;;;5054193;28;20194;-82
2021/09/26 07:02:38;;;;;;;17.27;15.47;;;16.10;99.90;;;;;;5062210;28;20188;-83
2021/09/26 07:05:04;;;;;;;16.93;14.97;;;16.10;99.90;;;;;;5056253;28;20640;-82
2021/09/26 07:07:30;;;;;;;17.90;16.07;;;16.10;99.90;;;;;;5055764;28;20181;-82
2021/09/26 07:09:55;;;;;;;20.73;18.53;;;16.10;99.90;;;;;;5056498;28;20589;-82
2021/09/26 07:12:21;;;;;;;21.97;18.90;;;16.10;99.90;;;;;;5056378;28;20203;-81
2021/09/26 07:14:47;;;;;;;27.57;19.13;;;16.00;99.90;;;;;;5055140;28;20655;-81
2021/09/26 07:17:13;;;;;;;24.57;18.77;;;16.00;99.90;;;;;;5055896;28;20269;-81
2021/09/26 07:19:39;;;;;;;22.00;17.93;;;16.00;99.90;;;;;;5055982;28;20279;-81
2021/09/26 07:22:05;;;;;;;23.43;17.90;;;16.20;99.90;;;;;;5054560;28;20206;-82
2021/09/26 07:24:31;;;;;;;20.70;17.80;;;16.10;99.90;;;;;;5055911;28;20168;-81
2021/09/26 07:26:57;;;;;;;17.50;14.47;;;16.20;99.90;;;;;;5056881;28;20291;-82
2021/09/26 07:29:23;;;;;;;19.60;15.23;;;16.40;99.90;;;;;;5054672;28;20241;-82
2021/09/26 07:31:49;;;;;;;15.83;14.13;;;16.40;99.90;;;;;;5056148;28;20191;-81
2021/09/26 07:34:14;;;;;;;15.27;12.37;;;16.50;99.90;;;;;;5056021;28;20184;-82
2021/09/26 07:36:40;;;;;;;11.17;9.83;;;16.60;99.90;;;;;;5054649;28;20268;-82
2021/09/26 07:39:06;;;;;;;10.27;8.37;;;16.70;99.90;;;;;;5055766;28;20612;-81
2021/09/26 07:41:33;;;;;;;12.17;7.60;;;16.60;99.90;;;;;;5052732;28;20693;-82
2021/09/26 07:44:00;;;;;;;9.87;7.17;;;16.60;99.90;;;;;;5054684;28;20176;-82
2021/09/26 07:46:26;;;;;;;8.40;5.60;;;16.70;99.90;;;;;;5055039;28;20631;-82
2021/09/26 07:48:52;;;;;;;8.60;5.60;;;16.60;99.90;;;;;;5056211;28;20214;-82
2021/09/26 07:51:17;;;;;;;6.07;5.37;;;16.60;99.90;;;;;;5055086;28;20541;-82
2021/09/26 07:53:43;;;;;;;5.50;5.00;;;16.50;99.90;;;;;;5056422;28;20337;-82
2021/09/26 07:56:09;;;;;;;5.30;4.77;;;16.70;99.90;;;;;;5055954;28;20220;-81
2021/09/26 07:58:34;;;;;;;5.00;4.60;;;16.70;99.90;;;;;;5052958;28;20172;-82
2021/09/26 08:01:01;;;;;;;4.60;4.20;;;16.70;99.90;;;;;;5046960;28;20201;-82
2021/09/26 08:03:27;;;;;;;5.13;4.53;;;16.70;99.90;;;;;;5054406;28;20185;-82
2021/09/26 08:05:53;;;;;;;5.80;5.20;;;16.70;99.90;;;;;;5055564;28;20181;-82
2021/09/26 08:08:19;;;;;;;5.37;4.83;;;16.60;99.90;;;;;;5058490;28;20173;-82
2021/09/26 08:10:44;;;;;;;5.40;4.90;;;16.60;99.90;;;;;;5063809;28;20707;-82
2021/09/26 08:13:10;;;;;;;5.67;5.17;;;16.70;99.90;;;;;;5055272;28;20196;-82
2021/09/26 08:15:36;;;;;;;5.30;4.83;;;16.60;99.90;;;;;;5054513;28;20165;-82
2021/09/26 08:18:04;;;;;;;8.30;5.07;;;16.60;99.90;;;;;;5056052;28;20175;-82
2021/09/26 08:20:30;;;;;;;6.30;5.70;;;16.70;99.90;;;;;;5053963;28;20551;-82
2021/09/26 08:22:56;;;;;;;5.67;5.17;;;16.70;99.90;;;;;;5053823;28;20197;-82
2021/09/26 08:25:22;;;;;;;5.73;5.23;;;16.60;99.90;;;;;;5055174;28;20218;-82
2021/09/26 08:27:52;;;;;;;5.60;5.10;;;16.70;99.90;;;;;;5053767;28;20224;-81
2021/09/26 08:30:18;;;;;;;5.80;5.30;;;16.70;99.90;;;;;;5058398;28;20200;-82
2021/09/26 08:32:46;;;;;;;7.20;6.40;;;16.70;99.90;;;;;;5055339;28;20189;-82
2021/09/26 08:35:12;;;;;;;8.20;7.17;;;16.80;99.90;;;;;;5055628;28;20633;-82
2021/09/26 08:37:38;;;;;;;8.27;7.57;;;16.80;99.90;;;;;;5058996;28;20169;-82
2021/09/26 08:40:06;;;;;;;7.60;7.00;;;16.90;99.90;;;;;;5063940;28;20207;-82
2021/09/26 08:42:33;;;;;;;6.87;6.33;;;16.90;99.90;;;;;;5055061;28;20196;-82
2021/09/26 08:44:59;;;;;;;8.07;6.40;;;16.90;99.90;;;;;;5053772;28;20180;-82
2021/09/26 08:47:25;;;;;;;7.47;6.10;;;16.90;99.90;;;;;;5053286;28;20172;-83
2021/09/26 08:49:51;;;;;;;7.33;6.63;;;16.90;99.90;;;;;;5054067;28;20195;-82
2021/09/26 08:52:17;;;;;;;9.43;8.67;;;16.90;99.90;;;;;;5057706;28;20224;-82
2021/09/26 08:54:44;;;;;;;8.33;7.63;;;17.00;99.90;;;;;;5053665;28;20173;-81
2021/09/26 08:57:10;;;;;;;7.70;7.03;;;16.90;99.90;;;;;;5055710;28;20173;-82
2021/09/26 08:59:35;;;;;;;8.10;7.50;;;16.90;99.90;;;;;;5056308;28;20256;-82
2021/09/26 09:02:02;;;;;;;6.83;6.33;;;17.00;99.90;;;;;;5044668;28;20741;-82
2021/09/26 09:04:39;;;;;;;7.33;6.73;;;16.90;99.90;;;;;;5054627;28;20173;-83
2021/09/26 09:07:07;;;;;;;8.17;7.47;;;16.90;99.90;;;;;;5055069;28;20176;-82
2021/09/26 09:09:56;;;;;;;7.83;7.13;;;16.90;99.90;;;;;;5056273;28;20717;-83
2021/09/26 09:12:36;;;;;;;7.30;6.40;;;17.00;99.90;;;;;;5053849;28;20208;-81
2021/09/26 09:15:15;;;;;;;7.37;6.43;;;17.00;99.90;;;;;;5053772;28;20220;-82
2021/09/26 09:17:42;;;;;;;6.53;5.97;;;17.00;99.90;;;;;;5053671;28;20175;-81
2021/09/26 09:20:20;;;;;;;6.50;5.70;;;16.90;99.90;;;;;;5059469;28;20298;-82
2021/09/26 09:22:50;;;;;;;10.10;6.27;;;16.90;99.90;;;;;;5056259;28;20185;-82
2021/09/26 09:25:32;;;;;;;6.60;6.03;;;17.00;99.90;;;;;;5056577;28;20173;-83
2021/09/26 09:27:59;;;;;;;6.00;5.40;;;17.00;99.90;;;;;;5056420;28;20181;-82
2021/09/26 09:30:52;;;;;;;6.10;5.50;;;17.00;99.90;;;;;;5057552;28;20208;-82
2021/09/26 09:33:20;;;;;;;5.73;5.23;;;17.00;99.90;;;;;;5055655;28;20203;-83
2021/09/26 09:35:53;;;;;;;4.73;4.37;;;17.10;99.90;;;;;;5058199;28;20203;-83
2021/09/26 09:38:35;;;;;;;5.47;4.37;;;17.00;99.90;;;;;;5057919;28;20223;-82
2021/09/26 09:41:01;;;;;;;5.30;4.90;;;17.00;99.90;;;;;;5057573;28;20189;-82
2021/09/26 09:43:27;;;;;;;5.80;5.10;;;17.10;99.90;;;;;;5056278;28;20285;-82
2021/09/26 09:45:56;;;;;;;6.27;5.33;;;17.10;99.90;;;;;;5058109;28;20177;-83
2021/09/26 09:48:24;;;;;;;4.87;4.40;;;17.10;99.90;;;;;;5058077;28;20173;-82
2021/09/26 09:50:56;;;;;;;5.30;4.83;;;17.10;99.90;;;;;;5056856;28;20177;-82
2021/09/26 09:53:28;;;;;;;7.23;5.77;;;17.20;99.90;;;;;;5056720;28;20213;-82
2021/09/26 09:56:13;;;;;;;8.27;7.40;;;17.30;99.90;;;;;;5055056;28;20169;-83
2021/09/26 09:58:50;;;;;;;7.20;6.57;;;17.30;99.90;;;;;;5058011;28;20183;-82
2021/09/26 10:01:26;;;;;;;6.37;5.87;;;17.40;99.90;;;;;;5048318;28;20194;-83
2021/09/26 10:04:21;;;;;;;6.17;5.57;;;17.50;99.90;;;;;;5057623;28;20199;-82
2021/09/26 10:06:48;;;;;;;5.80;5.30;;;17.60;99.90;;;;;;5056349;28;20754;-83
2021/09/26 10:09:24;;;;;;;5.00;4.60;;;17.60;99.90;;;;;;5057357;28;20186;-82
2021/09/26 10:12:03;;;;;;;5.40;4.93;;;17.70;99.90;;;;;;5057065;28;20559;-82
2021/09/26 10:14:35;;;;;;;5.60;5.03;;;17.80;99.90;;;;;;5058580;28;20169;-83
2021/09/26 10:17:03;;;;;;;5.50;5.07;;;17.80;99.90;;;;;;5059690;28;20224;-82
2021/09/26 10:19:31;;;;;;;5.87;5.30;;;17.90;99.90;;;;;;5060111;28;20194;-82
2021/09/26 10:22:00;;;;;;;6.60;5.53;;;18.20;99.90;;;;;;5059958;28;20201;-82
2021/09/26 10:24:31;;;;;;;7.13;5.07;;;18.10;99.90;;;;;;5061093;28;20176;-83
2021/09/26 10:27:01;;;;;;;5.30;4.80;;;18.10;99.90;;;;;;5059686;28;20257;-82
2021/09/26 10:29:31;;;;;;;5.00;4.60;;;18.10;99.90;;;;;;5061907;28;20170;-83
2021/09/26 10:32:01;;;;;;;5.17;4.77;;;18.10;99.90;;;;;;5060446;28;20221;-83
2021/09/26 10:34:27;;;;;;;5.23;4.83;;;18.10;99.90;;;;;;5061233;28;20181;-82
2021/09/26 10:36:53;;;;;;;4.63;4.23;;;18.10;99.90;;;;;;5061247;28;20265;-82
2021/09/26 10:39:19;;;;;;;4.93;4.53;;;18.10;99.90;;;;;;5059579;28;20189;-83
2021/09/26 10:42:16;;;;;;;5.23;4.73;;;18.10;99.90;;;;;;5061467;28;20185;-83
2021/09/26 10:45:02;;;;;;;5.13;4.70;;;18.30;99.90;;;;;;5047945;28;20663;-83
2021/09/26 10:47:29;;;;;;;5.57;4.43;;;18.40;99.90;;;;;;5061050;28;20170;-82
2021/09/26 10:50:00;;;;;;;4.97;4.63;;;18.30;99.90;;;;;;5060473;28;20166;-82
2021/09/26 10:52:33;;;;;;;5.20;4.80;;;18.30;99.90;;;;;;5059866;28;20217;-82
2021/09/26 10:55:14;;;;;;;4.70;4.30;;;18.60;99.90;;;;;;5062840;28;20181;-82
2021/09/26 10:57:53;;;;;;;5.20;4.70;;;18.40;99.90;;;;;;5060385;28;20580;-84
2021/09/26 11:00:37;;;;;;;5.07;4.63;;;18.40;99.90;;;;;;5049933;28;20197;-72
2021/09/26 11:03:14;;;;;;;5.30;4.90;;;18.60;99.90;;;;;;5055238;28;20483;-71
2021/09/26 11:05:43;;;;;;;4.63;4.23;;;18.70;99.90;;;;;;5054199;28;20165;-71
2021/09/26 11:08:16;;;;;;;5.00;4.53;;;18.70;99.90;;;;;;5055519;28;20224;-73
2021/09/26 11:10:49;;;;;;;4.67;4.27;;;18.80;99.90;;;;;;5055804;28;20174;-72
2021/09/26 11:13:21;;;;;;;4.43;4.13;;;18.80;99.90;;;;;;5054167;28;20753;-72
2021/09/26 11:16:10;;;;;;;5.23;4.63;;;18.70;99.90;;;;;;5049953;28;20186;-72
2021/09/26 11:18:58;;;;;;;4.70;4.33;;;18.80;99.90;;;;;;5041723;28;20185;-72
2021/09/26 11:21:38;;;;;;;5.03;4.63;;;18.80;99.90;;;;;;5055622;28;20224;-72
2021/09/26 11:24:32;;;;;;;5.07;4.67;;;18.90;99.90;;;;;;5038041;28;20181;-72
2021/09/26 11:27:00;;;;;;;5.00;4.60;;;18.90;99.90;;;;;;5042051;28;20170;-73
2021/09/26 11:29:29;;;;;;;5.60;5.10;;;19.00;99.90;;;;;;5052412;28;20171;-73
2021/09/26 11:31:55;;;;;;;5.07;4.67;;;19.00;99.90;;;;;;5039036;28;20198;-71
2021/09/26 11:34:42;;;;;;;5.30;4.90;;;19.00;99.90;;;;;;5039106;28;20177;-72
2021/09/26 11:37:11;;;;;;;5.20;4.80;;;;;;;;;;5033378;28;20537;-73
2021/09/26 11:39:38;;;;;;;4.67;4.33;;;19.20;99.90;;;;;;5034432;28;20190;-75
2021/09/26 11:42:33;;;;;;;5.03;4.60;;;19.20;99.90;;;;;;5035863;28;20198;-72
2021/09/26 11:45:02;;;;;;;4.80;4.40;;;19.30;99.90;;;;;;5047143;28;20190;-73
2021/09/26 11:47:28;;;;;;;5.27;4.87;;;19.20;99.90;;;;;;5036647;28;20236;-73
2021/09/26 11:50:00;;;;;;;5.20;4.80;;;19.30;99.90;;;;;;5042264;28;20656;-72
2021/09/26 11:52:26;;;;;;;4.97;4.57;;;19.30;99.90;;;;;;5069407;22;20222;-82
2021/09/26 11:54:59;;;;;;;5.47;4.97;;;19.30;99.90;;;;;;5044710;28;20213;-83
2021/09/26 11:57:25;;;;;;;5.53;5.00;;;19.30;99.90;;;;;;5045766;28;20214;-84
2021/09/26 11:59:51;;;;;;;5.20;4.80;;;19.30;99.90;;;;;;5045773;28;20195;-83
2021/09/26 12:02:17;;;;;;;4.83;4.43;;;19.30;99.90;;;;;;5046019;28;20739;-85
2021/09/26 12:04:44;;;;;;;5.30;4.90;;;19.30;99.90;;;;;;5048845;28;20207;-85
2021/09/26 12:07:33;;;;;;;5.87;5.23;;;19.30;99.90;;;;;;5053175;28;20182;-82
2021/09/26 12:09:59;;;;;;;5.80;5.30;;;19.40;99.90;;;;;;5041789;28;20578;-85
2021/09/26 12:12:29;;;;;;;5.73;5.23;;;19.40;99.90;;;;;;5042501;28;20206;-85
2021/09/26 12:15:14;;;;;;;5.63;5.20;;;19.50;99.90;;;;;;5043284;28;20183;-85
2021/09/26 12:17:40;;;;;;;6.47;5.90;;;19.40;99.90;;;;;;5038924;28;20182;-86
2021/09/26 12:20:09;;;;;;;7.07;6.17;;;19.50;99.90;;;;;;5039253;28;20213;-85
2021/09/26 12:22:37;;;;;;;5.93;5.47;;;19.50;99.90;;;;;;5040291;28;20191;-85
2021/09/26 12:25:25;;;;;;;6.17;5.60;;;19.60;99.90;;;;;;5038491;28;20179;-84
2021/09/26 12:27:59;;;;;;;6.50;5.73;;;19.60;99.90;;;;;;5035629;28;20179;-85
2021/09/26 12:30:38;;;;;;;6.83;6.20;;;19.70;99.90;;;;;;5044706;28;20210;-84
2021/09/26 12:33:17;;;;;;;6.13;5.53;;;19.60;99.90;;;;;;5039165;28;20210;-85
2021/09/26 12:36:02;;;;;;;6.07;5.57;;;19.70;99.90;;;;;;5031149;28;20218;-85
2021/09/26 12:38:35;;;;;;;6.70;6.17;;;19.70;99.90;;;;;;5041488;28;20253;-84
2021/09/26 12:41:09;;;;;;;6.80;6.20;;;19.70;99.90;;;;;;5032588;28;20224;-86
2021/09/26 12:43:51;;;;;;;7.67;5.83;;;19.70;99.90;;;;;;5036695;28;20217;-85
2021/09/26 12:46:21;;;;;;;6.33;5.83;;;19.70;99.90;;;;;;5044438;28;20190;-86
2021/09/26 12:48:48;;;;;;;7.10;6.60;;;19.60;99.90;;;;;;5044452;28;20179;-85